Terminal Aerodrome Forecast
Issued by NWS

Home | Current Version | Previous Version | Text Only | Print | Product List | Glossary On
Versions: 1 2 3 4 5 6 7 8 9 10 11 12 13 14 15 16 17
705
FTUS45 KFGZ 291740
TAFGCN
TAF
KGCN 291740Z 2918/3018 19008KT P6SM VCSH SCT030 BKN040 OVC080
      TEMPO 2919/2921 5SM TSRA BKN025CB
     FM292200 21006KT P6SM -SHRA BKN030 OVC050
     FM300300 VRB03KT P6SM SCT025 BKN050=

USA.gov is the U.S. government's official web portal to all federal, state and local government web resources and services.